Terminal Aerodrome Forecast
Issued by NWS

Home | Current Version | Previous Version | Text Only | Print | Product List | Glossary On
Versions: 1 2 3 4 5 6 7 8 9 10 11 12 13 14 15 16 17 18 19 20 21 22 23 24 25 26 27 28 29 30 31 32 33 34
433
FTUS41 KOKX 280552
TAFHPN
TAF
KHPN 280552Z 2806/2906 VRB03KT P6SM FEW070
     FM281700 17006KT 6SM HZ SCT070 BKN200
     FM290100 VRB03KT 6SM HZ VCSH FEW080 BKN150
      AMD NOT SKED=

USA.gov is the U.S. government's official web portal to all federal, state and local government web resources and services.